Time;durP1;ratioP1;P1;durP2;ratioP2;P2;SDS_P1;SDS_P2;PMS_P1;PMS_P2;Temp;Humidity;BMP_temperature;BMP_pressure;BME280_temperature;BME280_humidity;BME280_pressure;Samples;Min_cycle;Max_cycle;Signal;HPM_P1;HPM_P2
2022/05/20 00:05:39;;;;;;;0.20;0.10;;;20.30;99.90;;;;;;26405555;22;20177;-75
2022/05/20 00:15:42;;;;;;;0.20;0.10;;;20.20;99.90;;;;;;26430352;22;20194;-74
2022/05/20 00:25:48;;;;;;;0.20;0.00;;;20.10;99.90;;;;;;26430899;22;20273;-75
2022/05/20 00:35:52;;;;;;;0.20;0.00;;;19.90;99.90;;;;;;26430194;22;20178;-75
2022/05/20 00:45:59;;;;;;;0.20;0.00;;;19.70;99.90;;;;;;26431086;22;20181;-74
2022/05/20 00:56:05;;;;;;;0.20;0.00;;;19.60;99.90;;;;;;26428988;22;20337;-74
2022/05/20 01:06:11;;;;;;;0.20;0.10;;;19.90;99.90;;;;;;26430107;22;20166;-73
2022/05/20 01:16:16;;;;;;;0.20;0.10;;;19.70;99.90;;;;;;26428234;22;20196;-74
2022/05/20 01:26:22;;;;;;;0.20;0.10;;;19.90;99.90;;;;;;26427646;22;20150;-73
2022/05/20 01:36:27;;;;;;;0.20;0.00;;;19.70;99.90;;;;;;26426171;22;20204;-73
2022/05/20 01:46:36;;;;;;;0.20;0.00;;;19.50;99.90;;;;;;26401843;22;20166;-73
2022/05/20 01:56:47;;;;;;;0.20;0.10;;;19.60;99.90;;;;;;26436166;22;20274;-74
2022/05/20 02:06:56;;;;;;;0.20;0.10;;;19.50;99.90;;;;;;26409570;22;20166;-74
2022/05/20 02:17:09;;;;;;;0.20;0.00;;;19.70;99.90;;;;;;26407621;22;20197;-75
2022/05/20 02:27:19;;;;;;;0.20;0.10;;;20.10;99.90;;;;;;26435399;22;20168;-72
2022/05/20 02:37:26;;;;;;;0.20;0.10;;;20.50;99.90;;;;;;26435077;22;20196;-73
2022/05/20 02:47:33;;;;;;;0.20;0.10;;;20.50;99.90;;;;;;26378635;22;20170;-74
2022/05/20 02:57:38;;;;;;;0.20;0.00;;;20.70;99.90;;;;;;26434827;22;20223;-73
2022/05/20 03:07:44;;;;;;;0.20;0.10;;;20.70;99.90;;;;;;26406309;22;20170;-73
2022/05/20 03:17:47;;;;;;;0.20;0.10;;;20.50;99.90;;;;;;26432710;22;20190;-73
2022/05/20 03:27:53;;;;;;;0.20;0.10;;;20.40;99.90;;;;;;26420969;22;20350;-73
2022/05/20 03:37:56;;;;;;;0.20;0.00;;;20.60;99.90;;;;;;26401870;22;20193;-73
2022/05/20 03:48:02;;;;;;;0.20;0.03;;;20.50;99.90;;;;;;26431194;22;20162;-74
2022/05/20 03:58:06;;;;;;;0.20;0.10;;;20.10;99.90;;;;;;26400895;22;20226;-75
2022/05/20 04:08:12;;;;;;;0.20;0.10;;;19.70;99.90;;;;;;26403550;22;20166;-75
2022/05/20 04:18:16;;;;;;;0.20;0.10;;;19.70;99.90;;;;;;26402332;22;20198;-77
2022/05/20 04:28:21;;;;;;;0.20;0.10;;;19.50;99.90;;;;;;26430680;22;20252;-75
2022/05/20 04:38:25;;;;;;;0.20;0.10;;;19.30;99.90;;;;;;26401265;22;20343;-76
2022/05/20 04:48:30;;;;;;;0.20;0.10;;;19.00;99.90;;;;;;26389354;22;20166;-75
2022/05/20 04:58:34;;;;;;;0.20;0.00;;;19.00;99.90;;;;;;26427153;22;20197;-76
2022/05/20 05:08:39;;;;;;;0.20;0.00;;;19.00;99.90;;;;;;26402567;22;20166;-75
2022/05/20 05:18:47;;;;;;;0.20;0.10;;;19.10;99.90;;;;;;26490479;22;20208;-74
2022/05/20 05:28:52;;;;;;;0.20;0.00;;;19.50;99.90;;;;;;26563636;22;20173;-74
2022/05/20 05:38:58;;;;;;;0.20;0.10;;;19.90;99.90;;;;;;26570764;22;20185;-75
2022/05/20 05:49:03;;;;;;;0.20;0.00;;;20.10;99.90;;;;;;26535890;22;20165;-75
2022/05/20 05:59:07;;;;;;;0.20;0.00;;;20.80;99.90;;;;;;26563620;22;20317;-75
2022/05/20 06:09:13;;;;;;;0.20;0.00;;;21.20;99.90;;;;;;26556715;22;20298;-75
2022/05/20 06:19:16;;;;;;;0.20;0.00;;;21.30;99.90;;;;;;26562125;22;20579;-74
2022/05/20 06:29:22;;;;;;;0.20;0.00;;;21.70;99.90;;;;;;26561215;22;20162;-74
2022/05/20 06:49:47;;;;;;;0.20;0.00;;;22.40;99.90;;;;;;26562055;22;20169;-74
2022/05/20 06:59:51;;;;;;;0.20;0.00;;;22.80;99.90;;;;;;26560035;22;20201;-74
2022/05/20 07:09:57;;;;;;;0.20;0.00;;;22.90;99.90;;;;;;26560159;22;20180;-72
2022/05/20 07:20:01;;;;;;;0.20;0.10;;;22.80;99.90;;;;;;26535513;22;20185;-73
2022/05/20 07:30:09;;;;;;;0.20;0.00;;;22.90;99.90;;;;;;26560000;22;20157;-75
2022/05/20 07:40:13;;;;;;;0.20;0.10;;;23.00;99.90;;;;;;26522846;22;20227;-76
2022/05/20 07:50:19;;;;;;;0.20;0.10;;;23.20;99.90;;;;;;26519894;22;20173;-77
2022/05/20 08:00:23;;;;;;;0.22;0.20;;;23.40;99.90;;;;;;26519734;22;20196;-77
2022/05/20 08:10:30;;;;;;;0.20;0.10;;;23.40;99.90;;;;;;26546799;22;20185;-75
2022/05/20 08:20:34;;;;;;;0.20;0.10;;;23.40;99.90;;;;;;26521532;22;20193;-75
2022/05/20 08:30:39;;;;;;;0.20;0.00;;;23.80;99.90;;;;;;26548749;22;20169;-71
2022/05/20 08:40:46;;;;;;;0.20;0.10;;;23.80;99.90;;;;;;26519934;22;20176;-77
2022/05/20 08:50:52;;;;;;;0.20;0.00;;;23.80;99.90;;;;;;26546015;22;20276;-75
2022/05/20 09:00:56;;;;;;;0.20;0.00;;;24.10;99.90;;;;;;26545709;22;20202;-75
2022/05/20 09:11:04;;;;;;;0.90;0.90;;;24.20;99.90;;;;;;26548137;22;20563;-75
2022/05/20 09:21:10;;;;;;;0.20;0.00;;;24.10;99.90;;;;;;26543455;22;20185;-75
2022/05/20 09:31:21;;;;;;;0.20;0.00;;;24.20;99.90;;;;;;26545159;22;20192;-74
2022/05/20 09:41:25;;;;;;;0.20;0.00;;;24.30;99.90;;;;;;26515258;22;20182;-76
2022/05/20 09:51:36;;;;;;;0.20;0.00;;;24.70;99.90;;;;;;26516759;22;20234;-74
2022/05/20 10:01:45;;;;;;;0.20;0.00;;;25.10;99.90;;;;;;26543219;22;20161;-76
2022/05/20 10:11:56;;;;;;;0.20;0.00;;;25.40;99.90;;;;;;26547600;22;20178;-76
2022/05/20 10:22:10;;;;;;;0.20;0.00;;;25.40;99.90;;;;;;26553216;22;20185;-74
2022/05/20 10:32:36;;;;;;;0.20;0.00;;;26.00;99.90;;;;;;26525293;22;20181;-76
2022/05/20 10:43:03;;;;;;;0.20;0.00;;;25.60;99.90;;;;;;26522221;22;20157;-74
2022/05/20 10:53:22;;;;;;;0.20;0.00;;;25.70;99.90;;;;;;26549377;22;20189;-75
2022/05/20 11:03:52;;;;;;;0.20;0.00;;;25.90;99.90;;;;;;26551839;22;20156;-79
2022/05/20 11:14:20;;;;;;;0.20;0.00;;;26.40;99.90;;;;;;26550003;22;20169;-75
2022/05/20 11:24:40;;;;;;;0.20;0.05;;;26.70;99.90;;;;;;26548978;22;20162;-75
2022/05/20 11:35:21;;;;;;;0.20;0.00;;;27.10;99.90;;;;;;26547072;22;20181;-74
2022/05/20 11:45:36;;;;;;;0.20;0.00;;;27.50;99.90;;;;;;26358182;22;20228;-77
2022/05/20 11:55:49;;;;;;;0.20;0.00;;;28.50;99.90;;;;;;26523134;22;20219;-75
2022/05/20 12:05:55;;;;;;;0.20;0.00;;;28.10;99.90;;;;;;26521284;22;20158;-76
2022/05/20 12:16:14;;;;;;;0.20;0.10;;;28.70;99.90;;;;;;26546857;22;20196;-74
2022/05/20 12:26:25;;;;;;;0.20;0.00;;;29.10;99.90;;;;;;26547533;22;20161;-75
2022/05/20 12:36:39;;;;;;;0.20;0.00;;;29.00;99.90;;;;;;26512985;22;20181;-76
2022/05/20 12:47:12;;;;;;;0.20;0.00;;;29.60;99.90;;;;;;26545484;22;20177;-75
2022/05/20 12:57:21;;;;;;;0.20;0.00;;;30.30;99.90;;;;;;26516421;22;20193;-74
2022/05/20 13:07:26;;;;;;;0.20;0.00;;;30.40;99.90;;;;;;26492937;22;20169;-74
2022/05/20 13:17:33;;;;;;;0.20;0.00;;;30.40;99.90;;;;;;26546126;22;20193;-76
2022/05/20 13:27:45;;;;;;;0.20;0.00;;;30.80;99.90;;;;;;26545880;22;20176;-72
2022/05/20 13:37:54;;;;;;;0.20;0.10;;;30.80;99.90;;;;;;26547117;22;20181;-74
2022/05/20 13:58:21;;;;;;;0.20;0.03;;;30.70;99.90;;;;;;26555418;22;20186;-74
2022/05/20 14:08:26;;;;;;;0.20;0.00;;;31.30;99.90;;;;;;26550402;22;20153;-75
2022/05/20 14:18:33;;;;;;;0.20;0.00;;;31.40;99.90;;;;;;26552564;22;20193;-73
2022/05/20 14:28:53;;;;;;;0.20;0.20;;;30.90;99.90;;;;;;26548262;22;20149;-77
2022/05/20 14:39:00;;;;;;;0.20;0.00;;;31.40;99.90;;;;;;26520895;22;20383;-79
2022/05/20 14:49:04;;;;;;;0.20;0.00;;;31.60;99.90;;;;;;26547262;22;20150;-76
2022/05/20 14:59:13;;;;;;;0.20;0.00;;;31.20;99.90;;;;;;26516551;22;20192;-74
2022/05/20 15:09:23;;;;;;;0.20;0.00;;;30.40;99.90;;;;;;26515337;22;20162;-74
2022/05/20 15:19:29;;;;;;;0.20;0.00;;;30.90;99.90;;;;;;26516814;22;20207;-75
2022/05/20 15:29:32;;;;;;;0.20;0.00;;;30.80;99.90;;;;;;26520434;22;20150;-73
2022/05/20 15:39:41;;;;;;;0.20;0.00;;;30.60;99.90;;;;;;26544929;22;20177;-76
2022/05/20 15:49:45;;;;;;;0.20;0.00;;;30.30;99.90;;;;;;26546361;22;20221;-77
2022/05/20 15:59:52;;;;;;;0.20;0.00;;;30.50;99.90;;;;;;26522919;22;20385;-74
2022/05/20 16:09:56;;;;;;;0.20;0.00;;;29.90;99.90;;;;;;26553584;22;20150;-72
2022/05/20 16:20:01;;;;;;;0.20;0.10;;;28.00;99.90;;;;;;26523017;22;20208;-73
2022/05/20 16:30:07;;;;;;;0.20;0.00;;;27.40;99.90;;;;;;26523308;22;20157;-72
2022/05/20 16:40:17;;;;;;;0.20;0.00;;;27.60;99.90;;;;;;26548578;22;20222;-73
2022/05/20 16:50:21;;;;;;;0.20;0.00;;;27.50;99.90;;;;;;26548889;22;20158;-74
2022/05/20 17:10:48;;;;;;;0.20;0.00;;;28.90;99.90;;;;;;26522162;22;20177;-72
2022/05/20 17:20:53;;;;;;;0.20;0.10;;;29.80;99.90;;;;;;26522228;22;20212;-72
2022/05/20 17:30:57;;;;;;;0.20;0.15;;;30.20;99.90;;;;;;26526452;22;20168;-65
2022/05/20 17:41:03;;;;;;;0.20;0.00;;;29.60;99.90;;;;;;26552991;22;20203;-78
2022/05/20 17:51:07;;;;;;;0.20;0.00;;;29.30;99.90;;;;;;26553703;22;20157;-73
2022/05/20 18:01:14;;;;;;;0.20;0.00;;;29.30;99.90;;;;;;26491220;22;20416;-74
2022/05/20 18:11:19;;;;;;;0.20;0.10;;;28.80;99.90;;;;;;26521930;22;20169;-74
2022/05/20 18:21:25;;;;;;;3.25;3.03;;;28.10;99.90;;;;;;26518433;22;20200;-74
2022/05/20 18:31:37;;;;;;;0.20;0.00;;;27.10;99.90;;;;;;26518993;22;20177;-74
2022/05/20 18:41:42;;;;;;;0.20;0.03;;;26.10;99.90;;;;;;26525802;22;20230;-74
2022/05/20 18:51:46;;;;;;;0.20;0.10;;;25.60;99.90;;;;;;26556491;22;20190;-73
2022/05/20 19:01:52;;;;;;;0.20;0.00;;;25.10;99.90;;;;;;26527639;22;20192;-74
2022/05/20 19:11:56;;;;;;;0.20;0.00;;;24.70;99.90;;;;;;26556769;22;20161;-74
2022/05/20 19:22:02;;;;;;;0.20;0.05;;;24.30;99.90;;;;;;26525315;22;20201;-73
2022/05/20 19:32:08;;;;;;;0.20;0.00;;;24.00;99.90;;;;;;26552818;22;20215;-73
2022/05/20 19:42:14;;;;;;;0.20;0.00;;;23.40;99.90;;;;;;26555183;22;20142;-74
2022/05/20 19:52:18;;;;;;;0.20;0.00;;;23.30;99.90;;;;;;26502800;22;20207;-73
2022/05/20 20:02:23;;;;;;;0.20;0.00;;;22.80;99.90;;;;;;26525695;22;20174;-74
2022/05/20 20:12:27;;;;;;;0.20;0.00;;;22.70;99.90;;;;;;26524959;22;20173;-75
2022/05/20 20:32:55;;;;;;;0.20;0.00;;;22.10;99.90;;;;;;26555344;22;20185;-76
2022/05/20 20:43:05;;;;;;;0.20;0.10;;;22.00;99.90;;;;;;26518776;22;20170;-73
2022/05/20 20:53:10;;;;;;;0.20;0.10;;;21.80;99.90;;;;;;26555072;22;20180;-74
2022/05/20 21:03:17;;;;;;;0.20;0.00;;;21.70;99.90;;;;;;26524307;22;20165;-75
2022/05/20 21:13:23;;;;;;;0.20;0.00;;;21.60;99.90;;;;;;26526797;22;20177;-74
2022/05/20 21:23:29;;;;;;;0.20;0.10;;;21.20;99.90;;;;;;26554031;22;20192;-75
2022/05/20 21:33:34;;;;;;;0.20;0.00;;;21.20;99.90;;;;;;26555252;22;20252;-78
2022/05/20 21:43:39;;;;;;;0.20;0.10;;;21.20;99.90;;;;;;26528345;22;20166;-75
2022/05/20 21:53:43;;;;;;;0.20;0.00;;;21.00;99.90;;;;;;26554184;22;20185;-76
2022/05/20 22:14:13;;;;;;;0.20;0.00;;;21.10;99.90;;;;;;26537145;22;20193;-73
2022/05/20 22:24:21;;;;;;;0.20;0.10;;;20.80;99.90;;;;;;26561761;22;20173;-73
2022/05/20 22:34:25;;;;;;;0.20;0.10;;;20.80;99.90;;;;;;26561985;22;20174;-73
2022/05/20 22:44:31;;;;;;;0.20;0.00;;;20.30;99.90;;;;;;26559473;22;20226;-74
2022/05/20 22:56:05;;;;;;;0.20;0.10;;;20.30;99.90;;;;;;26530391;22;20185;-74
2022/05/20 23:05:00;;;;;;;0.20;0.10;;;20.10;99.90;;;;;;26533429;22;20157;-73
2022/05/20 23:15:05;;;;;;;0.20;0.10;;;20.10;99.90;;;;;;26534020;22;20197;-74
2022/05/20 23:25:10;;;;;;;0.20;0.00;;;20.00;99.90;;;;;;26530071;22;20165;-74
2022/05/20 23:35:31;;;;;;;0.20;0.10;;;19.70;99.90;;;;;;26529902;22;20253;-73
2022/05/20 23:45:38;;;;;;;0.20;0.10;;;19.60;99.90;;;;;;26560352;22;20162;-73
